Time;durP1;ratioP1;P1;durP2;ratioP2;P2;SDS_P1;SDS_P2;PMS_P1;PMS_P2;Temp;Humidity;BMP_temperature;BMP_pressure;BME280_temperature;BME280_humidity;BME280_pressure;Samples;Min_cycle;Max_cycle;Signal;HPM_P1;HPM_P2
2021/06/08 00:02:17;;;;;;;6.65;5.95;;;;;;;;;;5014866;28;20021;-76
2021/06/08 00:04:43;;;;;;;10.45;6.10;;;;;;;;;;5014411;28;20059;-76
2021/06/08 00:07:08;;;;;;;6.78;5.78;;;;;;;;;;5014241;28;20095;-76
2021/06/08 00:09:34;;;;;;;6.60;5.30;;;;;;;;;;4998619;28;20037;-76
2021/06/08 00:11:59;;;;;;;7.30;6.28;;;;;;;;;;4998208;28;20034;-76
2021/06/08 00:14:25;;;;;;;6.10;5.50;;;;;;;;;;5014381;28;20050;-76
2021/06/08 00:16:50;;;;;;;6.65;5.45;;;;;;;;;;5014425;28;20025;-76
2021/06/08 00:19:16;;;;;;;5.80;5.20;;;;;;;;;;4997849;28;20048;-76
2021/06/08 00:21:41;;;;;;;6.32;5.20;;;;;;;;;;4982256;28;20029;-76
2021/06/08 00:24:07;;;;;;;6.95;5.72;;;;;;;;;;4998096;28;20065;-76
2021/06/08 00:26:33;;;;;;;5.47;4.95;;;;;;;;;;5013521;28;20021;-76
2021/06/08 00:28:59;;;;;;;6.55;5.53;;;;;;;;;;5014347;28;20091;-76
2021/06/08 00:31:24;;;;;;;6.43;5.57;;;;;;;;;;5013716;28;20427;-76
2021/06/08 00:33:50;;;;;;;7.60;5.30;;;;;;;;;;5030486;28;20041;-76
2021/06/08 00:36:16;;;;;;;5.55;5.00;;;;;;;;;;4998127;28;20087;-76
2021/06/08 00:38:42;;;;;;;9.35;5.88;;;;;;;;;;4998073;28;20041;-76
2021/06/08 00:41:07;;;;;;;6.78;5.97;;;;;;;;;;5014621;28;20064;-76
2021/06/08 00:43:34;;;;;;;7.38;5.53;;;;;;;;;;4997716;28;20503;-76
2021/06/08 00:46:00;;;;;;;6.28;5.30;;;;;;;;;;5014454;28;20495;-76
2021/06/08 00:48:25;;;;;;;5.70;5.10;;;;;;;;;;4997661;28;20076;-76
2021/06/08 00:50:51;;;;;;;6.55;5.47;;;;;;;;;;4981604;28;20056;-76
2021/06/08 00:53:16;;;;;;;5.97;4.88;;;;;;;;;;4981263;28;20095;-76
2021/06/08 00:55:42;;;;;;;5.70;4.45;;;;;;;;;;5030275;28;20037;-76
2021/06/08 00:58:07;;;;;;;6.22;4.80;;;;;;;;;;5013919;28;20029;-76
2021/06/08 01:00:33;;;;;;;6.22;5.38;;;;;;;;;;5013556;28;20036;-76
2021/06/08 01:02:58;;;;;;;7.68;5.82;;;;;;;;;;4995596;28;20037;-76
2021/06/08 01:05:25;;;;;;;6.57;5.32;;;;;;;;;;4981786;28;20033;-76
2021/06/08 01:07:50;;;;;;;6.15;5.47;;;;;;;;;;4998564;28;20034;-76
2021/06/08 01:10:16;;;;;;;6.45;5.32;;;;;;;;;;4987388;28;20412;-76
2021/06/08 01:12:41;;;;;;;6.60;5.55;;;;;;;;;;5018238;28;20037;-76
2021/06/08 01:15:07;;;;;;;6.22;5.63;;;;;;;;;;5017414;28;20045;-76
2021/06/08 01:17:33;;;;;;;8.43;5.38;;;;;;;;;;4985093;28;20045;-76
2021/06/08 01:19:59;;;;;;;7.70;5.32;;;;;;;;;;5011581;28;20034;-76
2021/06/08 01:22:24;;;;;;;6.85;6.15;;;;;;;;;;4998323;28;20057;-76
2021/06/08 01:24:50;;;;;;;6.47;5.30;;;;;;;;;;4998092;28;20075;-76
2021/06/08 01:27:15;;;;;;;5.95;5.35;;;;;;;;;;5029433;28;20495;-76
2021/06/08 01:29:41;;;;;;;6.00;5.40;;;;;;;;;;5016940;28;20108;-76
2021/06/08 01:32:07;;;;;;;6.53;5.47;;;;;;;;;;5017472;28;20076;-76
2021/06/08 01:34:33;;;;;;;6.45;5.38;;;;;;;;;;5016714;28;20108;-76
2021/06/08 01:36:58;;;;;;;5.88;5.28;;;;;;;;;;5017594;28;20484;-76
2021/06/08 01:39:24;;;;;;;6.82;5.85;;;;;;;;;;5017405;28;20060;-76
2021/06/08 01:41:50;;;;;;;6.15;5.00;;;;;;;;;;5017173;28;20069;-76
2021/06/08 01:44:15;;;;;;;6.15;4.95;;;;;;;;;;5017296;28;20060;-76
2021/06/08 01:46:41;;;;;;;6.47;4.90;;;;;;;;;;5017167;28;20107;-76
2021/06/08 01:49:06;;;;;;;6.30;5.18;;;;;;;;;;5016974;28;20056;-76
2021/06/08 01:52:01;;;;;;;6.18;5.57;;;;;;;;;;5017427;28;20112;-76
2021/06/08 01:54:53;;;;;;;6.00;5.40;;;;;;;;;;5033539;28;20041;-76
2021/06/08 01:57:24;;;;;;;6.00;5.40;;;;;;;;;;5029795;28;20041;-76
2021/06/08 01:59:58;;;;;;;5.40;4.90;;;;;;;;;;5030229;28;20125;-76
2021/06/08 02:02:29;;;;;;;6.68;5.50;;;;;;;;;;5004919;28;20037;-76
2021/06/08 02:05:03;;;;;;;5.68;5.07;;;;;;;;;;5016351;28;20037;-76
2021/06/08 02:08:09;;;;;;;6.65;5.18;;;;;;;;;;5017276;28;20035;-76
2021/06/08 02:10:47;;;;;;;7.68;5.38;;;;;;;;;;5032982;28;20427;-76
2021/06/08 02:13:33;;;;;;;5.88;5.28;;;;;;;;;;5016242;28;20030;-76
2021/06/08 02:16:08;;;;;;;6.00;5.30;;;;;;;;;;5032782;28;20487;-76
2021/06/08 02:18:33;;;;;;;6.25;5.05;;;;;;;;;;5032835;28;20034;-76
2021/06/08 02:21:01;;;;;;;5.82;5.18;;;;;;;;;;5017022;28;20513;-76
2021/06/08 02:23:26;;;;;;;6.57;5.07;;;;;;;;;;5000426;28;20041;-76
2021/06/08 02:25:52;;;;;;;6.40;5.07;;;;;;;;;;5016395;28;20033;-76
2021/06/08 02:28:19;;;;;;;6.28;5.22;;;;;;;;;;4999884;28;20038;-76
2021/06/08 02:30:46;;;;;;;5.18;4.68;;;;;;;;;;5016163;28;20033;-76
2021/06/08 02:33:11;;;;;;;6.25;5.15;;;;;;;;;;5016249;28;20041;-76
2021/06/08 02:35:37;;;;;;;5.57;5.07;;;;;;;;;;5016083;28;20537;-76
2021/06/08 02:38:02;;;;;;;7.28;5.00;;;;;;;;;;5015986;28;20087;-76
2021/06/08 02:40:28;;;;;;;5.07;4.50;;;;;;;;;;5016547;28;20033;-76
2021/06/08 02:42:53;;;;;;;5.10;4.60;;;;;;;;;;5016204;28;20033;-76
2021/06/08 02:45:19;;;;;;;5.78;5.18;;;;;;;;;;5015678;28;20082;-76
2021/06/08 02:47:45;;;;;;;7.35;5.32;;;;;;;;;;5016197;28;20052;-76
2021/06/08 02:50:11;;;;;;;6.95;5.25;;;;;;;;;;5015996;28;20049;-76
2021/06/08 02:52:37;;;;;;;7.05;5.25;;;;;;;;;;5015989;28;20659;-76
2021/06/08 02:55:03;;;;;;;5.85;5.13;;;;;;;;;;5032071;28;20104;-76
2021/06/08 02:57:30;;;;;;;5.80;4.63;;;;;;;;;;5032010;28;20630;-76
2021/06/08 03:00:01;;;;;;;5.65;5.05;;;;;;;;;;4999647;28;20364;-76
2021/06/08 03:02:27;;;;;;;5.38;4.60;;;;;;;;;;5017527;28;20120;-76
2021/06/08 03:04:59;;;;;;;6.32;5.53;;;;;;;;;;5015093;28;20395;-76
2021/06/08 03:07:24;;;;;;;6.75;6.15;;;;;;;;;;5016092;28;20415;-76
2021/06/08 03:10:00;;;;;;;6.15;5.10;;;;;;;;;;5015629;28;20036;-76
2021/06/08 03:12:29;;;;;;;6.93;5.85;;;;;;;;;;5016138;28;20032;-76
2021/06/08 03:14:54;;;;;;;6.22;4.95;;;;;;;;;;5015672;28;20092;-77
2021/06/08 03:17:22;;;;;;;10.63;5.75;;;;;;;;;;5015637;28;20113;-76
2021/06/08 03:19:48;;;;;;;7.65;5.18;;;;;;;;;;5015603;28;20029;-76
2021/06/08 03:22:16;;;;;;;5.57;5.05;;;;;;;;;;5015784;28;20475;-77
2021/06/08 03:24:42;;;;;;;6.38;5.57;;;;;;;;;;4982412;28;20095;-76
2021/06/08 03:27:08;;;;;;;6.72;5.47;;;;;;;;;;4999053;28;20099;-76
2021/06/08 03:29:34;;;;;;;6.13;5.47;;;;;;;;;;5015152;28;20028;-76
2021/06/08 03:31:59;;;;;;;5.70;5.03;;;;;;;;;;5014583;28;20041;-76
2021/06/08 03:34:25;;;;;;;6.70;5.18;;;;;;;;;;5014785;28;20060;-76
2021/06/08 03:36:52;;;;;;;5.40;4.90;;;;;;;;;;4998966;28;20091;-76
2021/06/08 03:39:17;;;;;;;5.50;5.00;;;;;;;;;;5015480;28;20033;-76
2021/06/08 03:41:44;;;;;;;5.97;4.93;;;;;;;;;;5015242;28;20037;-76
2021/06/08 03:44:09;;;;;;;6.43;5.63;;;;;;;;;;5014842;28;20490;-76
2021/06/08 03:46:35;;;;;;;7.20;6.25;;;;;;;;;;5014951;28;20132;-77
2021/06/08 03:49:03;;;;;;;6.05;5.32;;;;;;;;;;5015342;28;20033;-76
2021/06/08 03:51:29;;;;;;;7.38;5.63;;;;;;;;;;5015190;28;20029;-76
2021/06/08 03:53:54;;;;;;;6.40;5.80;;;;;;;;;;5014303;28;20025;-76
2021/06/08 03:56:19;;;;;;;7.25;5.72;;;;;;;;;;4997641;28;20391;-76
2021/06/08 03:58:45;;;;;;;6.28;5.68;;;;;;;;;;5014329;28;20031;-76
2021/06/08 04:01:10;;;;;;;7.35;5.88;;;;;;;;;;5012741;28;20111;-76
2021/06/08 04:03:36;;;;;;;7.13;5.78;;;;;;;;;;5013216;28;20033;-76
2021/06/08 04:06:01;;;;;;;6.95;6.25;;;;;;;;;;5014852;28;20045;-76
2021/06/08 04:08:27;;;;;;;10.73;7.25;;;;;;;;;;5014422;28;20041;-76
2021/06/08 04:10:53;;;;;;;8.65;6.03;;;;;;;;;;5014450;28;20544;-76
2021/06/08 04:13:18;;;;;;;7.07;5.70;;;;;;;;;;5014616;28;20034;-76
2021/06/08 04:15:44;;;;;;;6.88;6.00;;;;;;;;;;5013658;28;20487;-76
2021/06/08 04:18:09;;;;;;;7.97;6.15;;;;;;;;;;5014455;28;20056;-76
2021/06/08 04:20:35;;;;;;;7.15;6.45;;;;;;;;;;4997576;28;20559;-76
2021/06/08 04:23:01;;;;;;;6.72;5.88;;;;;;;;;;5013334;28;20065;-76
2021/06/08 04:25:27;;;;;;;8.95;6.78;;;;;;;;;;5013939;28;20304;-76
2021/06/08 04:27:52;;;;;;;7.78;5.80;;;;;;;;;;5014586;28;20064;-76
2021/06/08 04:30:18;;;;;;;9.00;6.90;;;;;;;;;;5014427;28;20111;-76
2021/06/08 04:32:45;;;;;;;6.60;5.85;;;;;;;;;;5015930;28;20386;-76
2021/06/08 04:35:10;;;;;;;5.97;5.38;;;;;;;;;;5012194;28;20043;-76
2021/06/08 04:37:36;;;;;;;6.45;5.63;;;;;;;;;;5014049;28;20025;-76
2021/06/08 04:40:04;;;;;;;6.63;5.90;;;;;;;;;;5014180;28;20446;-76
2021/06/08 04:42:29;;;;;;;6.85;5.88;;;;;;;;;;5013671;28;20045;-76
2021/06/08 04:44:55;;;;;;;7.38;5.45;;;;;;;;;;4997475;28;20446;-76
2021/06/08 04:47:20;;;;;;;7.22;6.35;;;;;;;;;;5014348;28;20025;-76
2021/06/08 04:49:46;;;;;;;6.88;5.60;;;;;;;;;;5014045;28;20391;-73
2021/06/08 04:52:12;;;;;;;9.18;6.70;;;;;;;;;;5012794;28;20049;-74
2021/06/08 04:54:37;;;;;;;15.57;6.70;;;;;;;;;;4999989;28;20403;-74
2021/06/08 04:57:04;;;;;;;11.02;6.18;;;;;;;;;;5028041;28;20052;-73
2021/06/08 04:59:35;;;;;;;9.48;5.78;;;;;;;;;;5009771;28;20026;-74
2021/06/08 05:02:03;;;;;;;7.97;5.47;;;;;;;;;;5041248;28;20061;-74
2021/06/08 05:04:29;;;;;;;10.45;7.07;;;;;;;;;;5013806;28;20041;-74
2021/06/08 05:06:55;;;;;;;9.75;6.57;;;;;;;;;;5013678;28;20048;-74
2021/06/08 05:09:22;;;;;;;7.10;6.07;;;;;;;;;;5014119;28;20076;-74
2021/06/08 05:11:54;;;;;;;10.57;6.47;;;;;;;;;;5013615;28;20026;-74
2021/06/08 05:14:20;;;;;;;10.60;5.90;;;;;;;;;;5013282;28;20091;-74
2021/06/08 05:16:46;;;;;;;9.18;6.57;;;;;;;;;;5014067;28;20025;-74
2021/06/08 05:19:12;;;;;;;8.48;6.80;;;;;;;;;;5030158;28;20054;-75
2021/06/08 05:21:38;;;;;;;9.98;7.10;;;;;;;;;;5013491;28;20029;-74
2021/06/08 05:24:04;;;;;;;8.60;6.72;;;;;;;;;;5013764;28;20510;-74
2021/06/08 05:26:30;;;;;;;10.75;6.82;;;;;;;;;;5012815;28;20033;-74
2021/06/08 05:28:55;;;;;;;9.45;6.40;;;;;;;;;;4997454;28;20068;-74
2021/06/08 05:31:21;;;;;;;15.15;8.10;;;;;;;;;;5013712;28;20057;-74
2021/06/08 05:33:47;;;;;;;10.25;6.72;;;;;;;;;;4997030;28;20087;-74
2021/06/08 05:36:12;;;;;;;15.30;7.70;;;;;;;;;;5013930;28;20112;-74
2021/06/08 05:38:39;;;;;;;9.00;7.03;;;;;;;;;;5030158;28;20372;-74
2021/06/08 05:41:05;;;;;;;9.63;7.25;;;;;;;;;;5013113;28;20036;-74
2021/06/08 05:43:31;;;;;;;8.30;7.38;;;;;;;;;;5013233;28;20029;-74
2021/06/08 05:45:57;;;;;;;9.93;6.97;;;;;;;;;;5013242;28;20082;-74
2021/06/08 05:48:22;;;;;;;9.10;7.18;;;;;;;;;;5014616;28;20041;-74
2021/06/08 05:50:48;;;;;;;12.65;8.00;;;;;;;;;;5017029;28;20047;-75
2021/06/08 05:53:17;;;;;;;8.95;8.02;;;;;;;;;;5033834;28;20108;-75
2021/06/08 05:55:44;;;;;;;9.60;8.05;;;;;;;;;;5016806;28;20092;-75
2021/06/08 05:58:10;;;;;;;11.15;8.45;;;;;;;;;;4999058;28;20492;-74
2021/06/08 06:00:35;;;;;;;9.07;8.18;;;;;;;;;;5016904;28;20084;-74
2021/06/08 06:03:01;;;;;;;9.18;8.10;;;;;;;;;;4997038;28;20519;-74
2021/06/08 06:05:26;;;;;;;9.23;7.32;;;;;;;;;;5016290;28;20041;-74
2021/06/08 06:07:52;;;;;;;9.48;7.75;;;;;;;;;;5013666;28;20044;-74
2021/06/08 06:10:17;;;;;;;11.20;7.60;;;;;;;;;;5034515;28;20107;-73
2021/06/08 06:12:43;;;;;;;8.55;7.22;;;;;;;;;;5012924;28;20029;-74
2021/06/08 06:15:09;;;;;;;9.80;8.05;;;;;;;;;;4980919;28;20061;-74
2021/06/08 06:17:36;;;;;;;12.02;10.13;;;;;;;;;;5015448;28;20033;-74
2021/06/08 06:20:06;;;;;;;16.50;11.80;;;;;;;;;;5016158;28;20037;-74
2021/06/08 06:22:33;;;;;;;15.02;11.98;;;;;;;;;;5031532;28;20041;-74
2021/06/08 06:24:59;;;;;;;16.30;11.40;;;;;;;;;;5020866;28;20025;-74
2021/06/08 06:27:25;;;;;;;14.07;12.57;;;;;;;;;;5032980;28;20086;-74
2021/06/08 06:29:52;;;;;;;25.25;14.68;;;;;;;;;;5033002;28;20033;-74
2021/06/08 06:32:21;;;;;;;19.35;15.40;;;;;;;;;;5032690;28;20144;-74
2021/06/08 06:34:46;;;;;;;20.42;14.80;;;;;;;;;;4999453;28;20041;-74
2021/06/08 06:37:13;;;;;;;17.52;15.60;;;;;;;;;;5032867;28;20055;-74
2021/06/08 06:39:38;;;;;;;20.00;16.60;;;;;;;;;;5000066;28;20601;-74
2021/06/08 06:42:07;;;;;;;21.10;15.55;;;;;;;;;;5032521;28;20065;-74
2021/06/08 06:44:33;;;;;;;17.80;15.25;;;;;;;;;;5016412;28;20025;-74
2021/06/08 06:46:58;;;;;;;18.30;13.88;;;;;;;;;;5016164;28;20048;-75
2021/06/08 06:49:24;;;;;;;15.55;12.88;;;;;;;;;;5029176;28;20034;-74
2021/06/08 06:51:54;;;;;;;14.90;13.30;;;;;;;;;;4996670;28;20033;-74
2021/06/08 06:54:20;;;;;;;19.67;16.90;;;;;;;;;;4981331;28;20485;-74
2021/06/08 06:56:45;;;;;;;26.38;21.60;;;;;;;;;;4998845;28;20061;-74
2021/06/08 06:59:11;;;;;;;24.40;20.38;;;;;;;;;;5012083;28;20494;-75
2021/06/08 07:01:36;;;;;;;30.80;20.15;;;;;;;;;;4995446;28;20073;-74
2021/06/08 07:04:02;;;;;;;22.73;18.30;;;;;;;;;;4995513;28;20503;-74
2021/06/08 07:06:28;;;;;;;21.38;15.38;;;;;;;;;;5012761;28;20062;-74
2021/06/08 07:08:54;;;;;;;17.88;14.60;;;;;;;;;;4996400;28;20033;-75
2021/06/08 07:11:20;;;;;;;15.73;13.82;;;;;;;;;;4996536;28;20030;-74
2021/06/08 07:13:46;;;;;;;16.48;14.63;;;;;;;;;;5014023;28;20494;-74
2021/06/08 07:16:13;;;;;;;22.73;18.23;;;;;;;;;;5031211;28;20041;-74
2021/06/08 07:18:40;;;;;;;22.27;18.95;;;;;;;;;;5015466;28;20534;-75
2021/06/08 07:21:05;;;;;;;25.00;16.73;;;;;;;;;;5015810;28;20033;-74
2021/06/08 07:23:31;;;;;;;29.70;21.83;;;;;;;;;;5010125;28;20478;-74
2021/06/08 07:25:56;;;;;;;26.30;20.95;;;;;;;;;;5012082;28;20065;-74
2021/06/08 07:28:22;;;;;;;25.92;23.30;;;;;;;;;;5014923;28;20402;-74
2021/06/08 07:30:49;;;;;;;29.17;21.90;;;;;;;;;;5014706;28;20034;-74
2021/06/08 07:33:41;;;;;;;24.30;21.42;;;;;;;;;;5014760;28;20116;-74
2021/06/08 07:36:16;;;;;;;;;;;;;;;;;;5012765;28;20038;-74
2021/06/08 07:38:57;;;;;;;24.63;20.92;;;;;;;;;;5049120;28;19916;-74
2021/06/08 07:41:37;;;;;;;23.85;21.15;;;;;;;;;;5016966;28;20042;-74
2021/06/08 07:44:07;;;;;;;27.73;22.80;;;;;;;;;;5031368;28;20045;-73
2021/06/08 07:46:36;;;;;;;24.55;21.15;;;;;;;;;;4998056;28;20040;-74
2021/06/08 07:49:01;;;;;;;25.95;22.17;;;;;;;;;;4998148;28;20040;-76
2021/06/08 07:51:29;;;;;;;25.45;22.15;;;;;;;;;;5009389;28;20121;-76
2021/06/08 07:53:54;;;;;;;25.95;22.90;;;;;;;;;;4993394;28;20221;-75
2021/06/08 07:56:22;;;;;;;26.27;21.55;;;;;;;;;;5013868;28;20507;-75
2021/06/08 07:58:47;;;;;;;26.15;21.95;;;;;;;;;;4996590;28;20512;-75
2021/06/08 08:01:14;;;;;;;23.23;20.77;;;;;;;;;;5030374;28;20065;-75
2021/06/08 08:03:39;;;;;;;22.13;19.73;;;;;;;;;;5030996;28;20054;-75
2021/06/08 08:06:09;;;;;;;26.67;23.33;;;;;;;;;;5015084;28;20052;-75
2021/06/08 08:08:35;;;;;;;25.60;21.65;;;;;;;;;;5014602;28;20069;-74
2021/06/08 08:11:01;;;;;;;22.92;20.20;;;;;;;;;;4997849;28;20036;-74
2021/06/08 08:13:29;;;;;;;26.67;21.50;;;;;;;;;;5014568;28;20052;-74
2021/06/08 08:15:55;;;;;;;27.00;24.02;;;;;;;;;;5013002;28;20040;-75
2021/06/08 08:18:21;;;;;;;25.08;21.20;;;;;;;;;;5014702;28;20037;-75
2021/06/08 08:20:49;;;;;;;27.52;24.20;;;;;;;;;;4994625;28;20026;-75
2021/06/08 08:23:15;;;;;;;24.52;21.05;;;;;;;;;;5027328;28;20038;-75
2021/06/08 08:25:40;;;;;;;22.33;19.35;;;;;;;;;;4994538;28;20541;-75
2021/06/08 08:28:07;;;;;;;23.45;20.30;;;;;;;;;;5011034;28;20056;-75
2021/06/08 08:30:32;;;;;;;24.02;20.42;;;;;;;;;;5019674;28;20522;-75
2021/06/08 08:32:58;;;;;;;21.27;19.08;;;;;;;;;;5013951;28;20037;-75
2021/06/08 08:35:25;;;;;;;21.90;19.63;;;;;;;;;;5014250;28;20049;-76
2021/06/08 08:37:51;;;;;;;21.00;17.95;;;;;;;;;;5014270;28;20063;-76
2021/06/08 08:40:17;;;;;;;19.67;17.45;;;;;;;;;;5014232;28;20068;-75
2021/06/08 08:42:44;;;;;;;20.27;17.52;;;;;;;;;;5029945;28;20068;-76
2021/06/08 08:45:10;;;;;;;20.58;17.35;;;;;;;;;;5004855;28;20037;-75
2021/06/08 08:47:35;;;;;;;18.23;16.33;;;;;;;;;;5013634;28;20080;-75
2021/06/08 08:50:07;;;;;;;18.40;15.25;;;;;;;;;;5002507;28;20087;-77
2021/06/08 08:52:36;;;;;;;17.88;15.98;;;;;;;;;;5014539;28;20030;-76
2021/06/08 08:55:03;;;;;;;16.98;15.18;;;;;;;;;;5013559;28;20045;-76
2021/06/08 08:57:29;;;;;;;19.73;16.48;;;;;;;;;;5030278;28;20491;-75
2021/06/08 09:00:02;;;;;;;22.02;19.55;;;;;;;;;;5010242;28;20029;-76
2021/06/08 09:02:27;;;;;;;21.00;17.48;;;;;;;;;;4995391;28;20042;-76
2021/06/08 09:04:53;;;;;;;19.45;16.60;;;;;;;;;;4994584;28;20053;-75
2021/06/08 09:07:19;;;;;;;17.33;15.52;;;;;;;;;;4996896;28;20128;-76
2021/06/08 09:09:45;;;;;;;19.05;15.88;;;;;;;;;;5014076;28;20032;-76
2021/06/08 09:12:12;;;;;;;16.05;14.38;;;;;;;;;;5013992;28;20537;-75
2021/06/08 09:14:39;;;;;;;16.75;15.00;;;;;;;;;;5007949;28;20034;-75
2021/06/08 09:17:06;;;;;;;16.90;15.07;;;;;;;;;;5010499;28;20037;-75
2021/06/08 09:19:31;;;;;;;18.15;16.25;;;;;;;;;;5026950;28;20475;-75
2021/06/08 09:21:57;;;;;;;15.30;13.10;;;;;;;;;;5010765;28;20034;-75
2021/06/08 09:24:24;;;;;;;16.70;11.98;;;;;;;;;;5013454;28;20096;-75
2021/06/08 09:26:57;;;;;;;12.07;10.75;;;;;;;;;;4997472;28;20033;-75
2021/06/08 09:29:34;;;;;;;11.82;10.15;;;;;;;;;;4983624;28;20034;-76
2021/06/08 09:32:24;;;;;;;12.27;8.32;;;;;;;;;;5016333;28;20045;-75
2021/06/08 09:34:53;;;;;;;9.63;7.97;;;;;;;;;;5036312;28;20396;-75
2021/06/08 09:37:39;;;;;;;11.07;7.28;;;;;;;;;;5017239;28;20057;-75
2021/06/08 09:40:18;;;;;;;6.35;5.57;;;;;;;;;;5017384;28;20025;-76
2021/06/08 09:42:44;;;;;;;8.80;6.15;;;;;;;;;;5033453;28;20486;-76
2021/06/08 09:45:10;;;;;;;6.93;5.97;;;;;;;;;;4999108;28;20048;-76
2021/06/08 09:47:36;;;;;;;8.57;6.95;;;;;;;;;;5013688;28;20044;-76
2021/06/08 09:50:01;;;;;;;8.10;5.47;;;;;;;;;;4984341;28;20073;-75
2021/06/08 09:52:27;;;;;;;7.10;5.20;;;;;;;;;;5017352;28;20033;-76
2021/06/08 09:54:56;;;;;;;9.80;6.47;;;;;;;;;;4981106;28;20026;-76
2021/06/08 09:57:28;;;;;;;8.35;6.55;;;;;;;;;;5011521;28;20033;-76
2021/06/08 10:00:01;;;;;;;9.15;5.70;;;;;;;;;;5016962;28;20025;-76
2021/06/08 10:02:43;;;;;;;7.40;5.68;;;;;;;;;;5017903;28;20122;-76
2021/06/08 10:05:21;;;;;;;9.32;4.80;;;;;;;;;;5033717;28;20053;-76
2021/06/08 10:07:51;;;;;;;6.80;4.75;;;;;;;;;;5032942;28;20041;-75
2021/06/08 10:10:21;;;;;;;7.60;4.65;;;;;;;;;;5000516;28;20033;-76
2021/06/08 10:13:01;;;;;;;6.60;4.60;;;;;;;;;;5000758;28;20036;-75
2021/06/08 10:15:31;;;;;;;4.22;3.38;;;;;;;;;;5000615;28;20029;-76
2021/06/08 10:18:14;;;;;;;6.20;3.92;;;;;;;;;;4997045;28;20045;-75
2021/06/08 10:20:40;;;;;;;6.90;5.65;;;;;;;;;;5013334;28;20038;-77
2021/06/08 10:23:26;;;;;;;7.72;5.47;;;;;;;;;;5015106;28;20064;-76
2021/06/08 10:25:54;;;;;;;9.52;5.55;;;;;;;;;;5015759;28;20035;-76
2021/06/08 10:28:19;;;;;;;7.82;4.88;;;;;;;;;;4999021;28;20034;-77
2021/06/08 10:30:46;;;;;;;6.72;4.85;;;;;;;;;;5015625;28;20128;-76
2021/06/08 10:33:11;;;;;;;5.78;4.15;;;;;;;;;;4983898;28;20057;-76
2021/06/08 10:35:37;;;;;;;7.95;4.72;;;;;;;;;;5016203;28;20072;-77
2021/06/08 10:38:03;;;;;;;7.70;5.10;;;;;;;;;;5032830;28;20064;-78
2021/06/08 10:40:30;;;;;;;8.40;5.65;;;;;;;;;;4998297;28;20560;-77
2021/06/08 10:42:56;;;;;;;8.45;5.82;;;;;;;;;;5047134;28;20042;-77
2021/06/08 10:45:22;;;;;;;8.57;6.45;;;;;;;;;;5029943;28;20127;-77
2021/06/08 10:47:55;;;;;;;9.02;6.30;;;;;;;;;;5015907;28;20045;-77
2021/06/08 10:50:22;;;;;;;7.43;5.90;;;;;;;;;;5001562;28;20036;-77
2021/06/08 10:52:48;;;;;;;6.82;5.32;;;;;;;;;;5016414;28;20037;-77
2021/06/08 10:55:13;;;;;;;12.70;5.93;;;;;;;;;;5015825;28;20029;-77
2021/06/08 10:57:44;;;;;;;8.57;7.07;;;;;;;;;;5014361;28;20030;-77
2021/06/08 11:00:23;;;;;;;8.60;6.78;;;;;;;;;;4987213;28;20139;-78
2021/06/08 11:02:49;;;;;;;10.40;7.95;;;;;;;;;;5012477;28;20034;-77
2021/06/08 11:05:16;;;;;;;11.32;7.03;;;;;;;;;;5012486;28;20037;-78
2021/06/08 11:07:49;;;;;;;13.25;6.70;;;;;;;;;;4996425;28;20030;-77
2021/06/08 11:10:27;;;;;;;9.13;6.65;;;;;;;;;;5012408;28;20061;-77
2021/06/08 11:13:12;;;;;;;7.05;5.55;;;;;;;;;;5020056;28;20103;-79
2021/06/08 11:15:39;;;;;;;9.55;4.70;;;;;;;;;;5032788;28;20064;-75
2021/06/08 11:18:36;;;;;;;6.50;3.95;;;;;;;;;;5015465;28;20033;-75
2021/06/08 11:21:05;;;;;;;7.30;3.60;;;;;;;;;;5010746;28;20037;-75
2021/06/08 11:23:34;;;;;;;5.53;3.58;;;;;;;;;;5032903;28;20037;-75
2021/06/08 11:26:00;;;;;;;4.95;3.28;;;;;;;;;;5032142;28;20060;-75
2021/06/08 11:28:41;;;;;;;3.35;2.50;;;;;;;;;;5015633;28;20072;-75
2021/06/08 11:31:06;;;;;;;4.32;2.65;;;;;;;;;;5032044;28;20029;-75
2021/06/08 11:33:37;;;;;;;4.22;2.88;;;;;;;;;;5014411;28;20085;-75
2021/06/08 11:36:18;;;;;;;6.30;3.25;;;;;;;;;;5012383;28;20426;-75
2021/06/08 11:38:43;;;;;;;5.68;3.33;;;;;;;;;;5028470;28;20076;-75
2021/06/08 11:41:09;;;;;;;4.30;2.42;;;;;;;;;;4995460;28;20062;-76
2021/06/08 11:43:34;;;;;;;10.52;7.95;;;;;;;;;;4979058;28;20095;-75
2021/06/08 11:46:11;;;;;;;8.65;6.28;;;;;;;;;;5011897;28;20034;-75
2021/06/08 11:48:46;;;;;;;6.85;4.78;;;;;;;;;;5001087;28;20471;-75
2021/06/08 11:51:15;;;;;;;8.05;5.18;;;;;;;;;;5000277;28;20250;-75
2021/06/08 11:54:16;;;;;;;5.47;3.83;;;;;;;;;;5031134;28;20116;-75
2021/06/08 11:56:49;;;;;;;7.75;3.20;;;;;;;;;;5030866;28;20403;-75
2021/06/08 11:59:16;;;;;;;6.97;3.63;;;;;;;;;;5011654;28;20029;-75
2021/06/08 12:01:43;;;;;;;6.85;3.85;;;;;;;;;;5020117;28;20423;-76
2021/06/08 12:04:09;;;;;;;7.45;3.80;;;;;;;;;;5011502;28;20440;-75
2021/06/08 12:07:06;;;;;;;4.75;2.78;;;;;;;;;;5012865;28;20025;-75
2021/06/08 12:09:33;;;;;;;4.00;2.92;;;;;;;;;;5027820;28;20040;-75
2021/06/08 12:12:03;;;;;;;5.05;2.90;;;;;;;;;;4996197;28;20052;-75
2021/06/08 12:14:29;;;;;;;5.18;2.53;;;;;;;;;;5012924;28;20104;-75
2021/06/08 12:16:56;;;;;;;4.28;2.55;;;;;;;;;;5029162;28;20510;-75
2021/06/08 12:19:32;;;;;;;4.70;3.30;;;;;;;;;;5030855;28;20029;-75
2021/06/08 12:22:03;;;;;;;4.65;3.67;;;;;;;;;;4998340;28;20037;-75
2021/06/08 12:24:28;;;;;;;4.00;3.25;;;;;;;;;;5030920;28;20036;-75
2021/06/08 12:26:59;;;;;;;4.32;2.92;;;;;;;;;;5014474;28;20025;-75
2021/06/08 12:29:25;;;;;;;5.53;3.70;;;;;;;;;;5030796;28;20391;-75
2021/06/08 12:31:57;;;;;;;4.68;3.50;;;;;;;;;;5014262;28;20026;-75
2021/06/08 12:34:25;;;;;;;5.72;3.30;;;;;;;;;;5030690;28;20072;-75
2021/06/08 12:36:51;;;;;;;5.28;3.25;;;;;;;;;;5014274;28;20030;-75
2021/06/08 12:39:18;;;;;;;6.93;3.50;;;;;;;;;;5014489;28;20092;-75
2021/06/08 12:41:44;;;;;;;5.70;2.70;;;;;;;;;;5014540;28;20475;-75
2021/06/08 12:44:09;;;;;;;4.05;2.45;;;;;;;;;;5030906;28;20108;-75
2021/06/08 12:46:39;;;;;;;4.65;2.45;;;;;;;;;;5013847;28;20026;-75
2021/06/08 12:49:08;;;;;;;6.50;2.58;;;;;;;;;;5014188;28;20034;-75
2021/06/08 12:51:41;;;;;;;4.45;2.83;;;;;;;;;;5031630;28;20029;-75
2021/06/08 12:54:08;;;;;;;5.28;3.22;;;;;;;;;;5014994;28;20426;-75
2021/06/08 12:56:34;;;;;;;4.63;2.80;;;;;;;;;;5013897;28;20029;-75
2021/06/08 12:59:00;;;;;;;5.13;2.92;;;;;;;;;;4993435;28;20037;-75
2021/06/08 13:01:25;;;;;;;5.65;3.38;;;;;;;;;;5009297;28;20030;-75
2021/06/08 13:03:51;;;;;;;5.40;2.90;;;;;;;;;;4994264;28;20052;-75
2021/06/08 13:06:23;;;;;;;4.68;2.97;;;;;;;;;;4993578;28;20034;-75
2021/06/08 13:08:48;;;;;;;4.93;2.25;;;;;;;;;;5011166;28;20053;-75
2021/06/08 13:11:18;;;;;;;6.60;2.58;;;;;;;;;;4994375;28;20030;-75
2021/06/08 13:13:44;;;;;;;5.05;2.47;;;;;;;;;;5002193;28;20033;-75
2021/06/08 13:16:38;;;;;;;4.82;2.60;;;;;;;;;;4992926;28;20052;-75
2021/06/08 13:19:24;;;;;;;4.32;2.78;;;;;;;;;;5014150;28;20041;-75
2021/06/08 13:21:51;;;;;;;4.35;2.30;;;;;;;;;;4994529;28;20064;-75
2021/06/08 13:24:18;;;;;;;3.58;2.15;;;;;;;;;;5009917;28;20037;-75
2021/06/08 13:26:43;;;;;;;3.10;2.13;;;;;;;;;;5018050;28;20514;-75
2021/06/08 13:29:13;;;;;;;4.43;2.17;;;;;;;;;;5012147;28;20038;-75
2021/06/08 13:31:39;;;;;;;4.45;1.92;;;;;;;;;;5024588;28;20033;-75
2021/06/08 13:34:15;;;;;;;4.10;1.85;;;;;;;;;;5011619;28;20096;-75
2021/06/08 13:36:42;;;;;;;4.57;2.15;;;;;;;;;;5012561;28;20132;-75
2021/06/08 13:39:09;;;;;;;4.70;1.90;;;;;;;;;;5011791;28;20037;-75
2021/06/08 13:41:35;;;;;;;3.10;2.13;;;;;;;;;;5012797;28;20021;-75
2021/06/08 13:44:05;;;;;;;3.22;1.67;;;;;;;;;;5012484;28;20111;-75
2021/06/08 13:46:31;;;;;;;2.78;2.10;;;;;;;;;;5011614;28;20036;-75
2021/06/08 13:48:59;;;;;;;5.18;2.40;;;;;;;;;;5012103;28;20035;-75
2021/06/08 13:51:25;;;;;;;3.88;1.92;;;;;;;;;;4996730;28;20021;-75
2021/06/08 13:54:10;;;;;;;3.92;1.85;;;;;;;;;;5012457;28;20060;-75
2021/06/08 13:56:50;;;;;;;3.83;1.92;;;;;;;;;;5012124;28;20037;-75
2021/06/08 14:02:06;;;;;;;3.90;1.95;;;;;;;;;;5029957;28;20036;-75
2021/06/08 14:04:44;;;;;;;5.13;1.77;;;;;;;;;;4992061;28;20034;-75
2021/06/08 14:07:09;;;;;;;4.35;1.83;;;;;;;;;;5008984;28;20038;-75
2021/06/08 14:09:49;;;;;;;1.92;1.30;;;;;;;;;;5012130;28;20037;-75
2021/06/08 14:12:14;;;;;;;3.97;1.67;;;;;;;;;;5016532;28;20029;-75
2021/06/08 14:14:40;;;;;;;2.97;1.30;;;;;;;;;;5032028;28;20044;-75
2021/06/08 14:17:12;;;;;;;2.23;1.40;;;;;;;;;;5030263;28;105004;-75
2021/06/08 14:19:38;;;;;;;3.90;1.70;;;;;;;;;;5032756;28;20033;-75
2021/06/08 14:22:04;;;;;;;2.20;1.25;;;;;;;;;;5016900;28;20487;-75
2021/06/08 14:24:30;;;;;;;4.38;1.55;;;;;;;;;;5016495;28;20057;-75
2021/06/08 14:26:56;;;;;;;3.13;1.65;;;;;;;;;;5016478;28;20107;-75
2021/06/08 14:29:22;;;;;;;4.10;1.45;;;;;;;;;;5016182;28;20507;-75
2021/06/08 14:31:48;;;;;;;2.60;1.50;;;;;;;;;;5012909;28;20041;-75
2021/06/08 14:34:13;;;;;;;3.42;1.17;;;;;;;;;;4996615;28;20046;-75
2021/06/08 14:36:39;;;;;;;3.22;1.40;;;;;;;;;;4996577;28;20563;-75
2021/06/08 14:39:05;;;;;;;3.08;1.27;;;;;;;;;;4997015;28;20091;-76
2021/06/08 14:41:33;;;;;;;2.88;1.50;;;;;;;;;;4981250;28;20057;-75
2021/06/08 14:43:59;;;;;;;2.47;1.40;;;;;;;;;;4996481;28;20038;-76
2021/06/08 14:46:28;;;;;;;2.72;1.27;;;;;;;;;;4979867;28;20030;-75